createdAt,value
2023-01-13T00:00:27.475Z,100141.31
2023-01-13T00:04:43.724Z,100139.69
2023-01-13T00:09:00.126Z,100138.50
2023-01-13T00:13:16.565Z,100136.84
2023-01-13T00:17:32.787Z,100136.03
2023-01-13T00:21:49.037Z,100133.94
2023-01-13T00:26:10.750Z,100129.06
2023-01-13T00:30:28.020Z,100116.31
2023-01-13T00:34:44.408Z,100119.38
2023-01-13T00:39:00.847Z,100121.78
2023-01-13T00:43:23.021Z,100125.41
2023-01-13T00:47:39.312Z,100130.72
2023-01-13T00:51:55.619Z,100123.75
2023-01-13T00:56:22.014Z,100114.59
2023-01-13T01:00:40.778Z,100127.66
2023-01-13T01:04:56.995Z,100123.75
2023-01-13T01:09:15.879Z,100121.41
2023-01-13T01:13:32.183Z,100116.38
2023-01-13T01:17:48.391Z,100115.50
2023-01-13T01:22:04.728Z,100113.78
2023-01-13T01:26:26.017Z,100106.13
2023-01-13T01:30:42.298Z,100110.69
2023-01-13T01:34:58.591Z,100101.69
2023-01-13T01:39:14.855Z,100097.19
2023-01-13T01:43:59.587Z,100092.63
2023-01-13T01:48:15.957Z,100085.25
2023-01-13T01:52:36.723Z,100098.06
2023-01-13T01:56:53.289Z,100093.50
2023-01-13T02:01:10.247Z,100084.41
2023-01-13T02:05:26.634Z,100083.72
2023-01-13T02:09:42.975Z,100074.59
2023-01-13T02:13:59.176Z,100078.91
2023-01-13T02:18:26.430Z,100077.69
2023-01-13T02:22:57.619Z,100072.66
2023-01-13T02:27:27.412Z,100070.00
2023-01-13T02:31:49.664Z,100068.44
2023-01-13T02:36:28.747Z,100060.38
2023-01-13T02:40:56.966Z,100058.25
2023-01-13T02:45:21.395Z,100051.06
2023-01-13T02:49:45.198Z,100054.75
2023-01-13T02:54:07.199Z,100048.56
2023-01-13T02:58:29.522Z,100046.16
2023-01-13T03:02:45.760Z,100040.31
2023-01-13T03:07:25.214Z,100030.31
2023-01-13T03:12:04.483Z,100026.19
2023-01-13T03:16:57.612Z,100034.22
2023-01-13T03:21:21.058Z,100027.37
2023-01-13T03:25:42.847Z,100022.47
2023-01-13T03:30:01.764Z,100017.22
2023-01-13T03:34:22.168Z,100007.13
2023-01-13T03:38:44.540Z,100028.16
2023-01-13T03:43:27.422Z,100019.06
2023-01-13T03:47:51.354Z,100018.84
2023-01-13T03:52:10.152Z,100018.06
2023-01-13T03:56:36.478Z,100018.38
2023-01-13T04:01:03.003Z,100024.25
2023-01-13T04:05:19.783Z,100013.09
2023-01-13T04:09:41.665Z,100033.06
2023-01-13T04:13:58.896Z,100027.13
2023-01-13T04:18:19.092Z,100026.34
2023-01-13T04:22:35.274Z,100023.19
2023-01-13T04:26:51.499Z,100022.47
2023-01-13T04:31:07.740Z,100021.69
2023-01-13T04:35:23.993Z,100028.97
2023-01-13T04:39:40.135Z,100023.19
2023-01-13T04:43:56.365Z,100033.44
2023-01-13T04:48:13.113Z,100032.47
2023-01-13T04:52:29.254Z,100038.22
2023-01-13T04:56:45.564Z,100032.94
2023-01-13T05:01:01.764Z,100037.63
2023-01-13T05:05:18.287Z,100043.34
2023-01-13T05:09:34.602Z,100049.63
2023-01-13T05:14:09.545Z,100027.06
2023-01-13T05:18:26.202Z,100045.81
2023-01-13T05:23:00.989Z,100029.31
2023-01-13T05:27:17.142Z,100044.97
2023-01-13T05:31:33.387Z,100033.91
2023-01-13T05:35:49.950Z,100052.41
2023-01-13T05:40:25.401Z,100048.69
2023-01-13T05:44:41.627Z,100044.53
2023-01-13T05:48:59.039Z,100042.41
2023-01-13T05:53:15.511Z,100035.34
2023-01-13T05:57:31.760Z,100044.53
2023-01-13T06:01:47.872Z,100035.25
2023-01-13T06:06:04.758Z,100047.06
2023-01-13T06:10:20.920Z,100034.03
2023-01-13T06:14:42.887Z,100040.53
2023-01-13T06:18:59.107Z,100039.47
2023-01-13T06:23:15.421Z,100044.44
2023-01-13T06:27:31.607Z,100046.41
2023-01-13T06:31:47.950Z,100038.19
2023-01-13T06:36:11.330Z,100050.50
2023-01-13T06:40:27.463Z,100059.22
2023-01-13T06:44:44.565Z,100051.84
2023-01-13T06:49:00.760Z,100063.13
2023-01-13T06:53:17.066Z,100076.12
2023-01-13T06:57:33.219Z,100067.87
2023-01-13T07:01:49.631Z,100059.91
2023-01-13T07:06:06.327Z,100053.06
2023-01-13T07:10:22.641Z,100061.63
2023-01-13T07:14:57.292Z,100054.44
2023-01-13T07:19:13.508Z,100048.25
2023-01-13T07:23:31.824Z,100050.03
2023-01-13T07:27:48.213Z,100049.22
2023-01-13T07:32:04.743Z,100056.94
2023-01-13T07:36:22.132Z,100055.03
2023-01-13T07:40:40.035Z,100060.28
2023-01-13T07:44:56.232Z,100061.00
2023-01-13T07:49:13.328Z,100060.56
2023-01-13T07:53:29.547Z,100060.63
2023-01-13T07:57:45.843Z,100069.66
2023-01-13T08:02:02.219Z,100070.31
2023-01-13T08:06:19.021Z,100080.66
2023-01-13T08:10:35.609Z,100079.62
2023-01-13T08:14:53.079Z,100088.63
2023-01-13T08:19:09.211Z,100088.31
2023-01-13T08:23:25.431Z,100091.41
2023-01-13T08:27:41.755Z,100096.19
2023-01-13T08:31:58.069Z,100107.44
2023-01-13T08:36:14.401Z,100117.91
2023-01-13T08:40:30.596Z,100102.97
2023-01-13T08:44:46.778Z,100101.91
2023-01-13T08:49:03.368Z,100112.50
2023-01-13T08:53:19.885Z,100102.69
2023-01-13T08:57:36.337Z,100103.50
2023-01-13T09:01:52.981Z,100093.34
2023-01-13T09:06:09.590Z,100090.66
2023-01-13T09:10:25.947Z,100086.72
2023-01-13T09:14:42.146Z,100078.56
2023-01-13T09:18:58.334Z,100088.44
2023-01-13T09:23:14.581Z,100090.38
2023-01-13T09:27:30.847Z,100083.56
2023-01-13T09:31:47.345Z,100086.72
2023-01-13T09:36:03.540Z,100091.09
2023-01-13T09:40:22.890Z,100096.72
2023-01-13T09:44:58.172Z,100081.47
2023-01-13T09:49:27.355Z,100085.44
2023-01-13T09:53:56.265Z,100074.03
2023-01-13T09:58:19.933Z,100072.13
2023-01-13T10:02:59.512Z,100067.28
2023-01-13T10:07:15.762Z,100061.56
2023-01-13T10:11:55.607Z,100057.41
2023-01-13T10:16:11.748Z,100066.94
2023-01-13T10:20:40.722Z,100059.28
2023-01-13T10:25:20.646Z,100057.00
2023-01-13T10:29:37.200Z,100062.12
2023-01-13T10:34:06.531Z,100055.44
2023-01-13T10:38:24.171Z,100036.31
2023-01-13T10:42:41.764Z,100039.44
2023-01-13T10:46:59.699Z,100029.28
2023-01-13T10:51:28.750Z,100021.97
2023-01-13T10:55:59.890Z,100022.38
2023-01-13T11:00:36.828Z,100020.53
2023-01-13T11:05:09.117Z,99998.84
2023-01-13T11:09:26.757Z,100006.44
2023-01-13T11:14:03.949Z,100008.69
2023-01-13T11:18:25.647Z,100000.81
2023-01-13T11:22:55.069Z,99978.72
2023-01-13T11:27:26.288Z,99960.63
2023-01-13T11:31:48.447Z,99940.22
2023-01-13T11:36:12.027Z,99927.09
2023-01-13T11:40:45.399Z,99937.53
2023-01-13T11:45:21.548Z,99927.50
2023-01-13T11:49:38.895Z,99930.38
2023-01-13T11:54:02.272Z,99922.63
2023-01-13T11:58:29.003Z,99906.06
2023-01-13T12:03:13.254Z,99909.34
2023-01-13T12:08:08.894Z,99922.53
2023-01-13T12:12:47.635Z,99927.09
2023-01-13T12:17:08.534Z,99922.66
2023-01-13T12:21:38.687Z,99921.22
2023-01-13T12:26:03.653Z,99937.53
2023-01-13T12:30:26.303Z,99924.19
2023-01-13T12:35:07.961Z,99932.69
2023-01-13T12:39:53.809Z,99917.97
2023-01-13T12:44:22.435Z,99906.78
2023-01-13T12:48:59.437Z,99905.81
2023-01-13T12:53:34.052Z,99902.97
2023-01-13T12:58:17.785Z,99912.69
2023-01-13T13:02:38.313Z,99907.00
2023-01-13T13:07:07.295Z,99906.59
2023-01-13T13:12:03.594Z,99906.62
2023-01-13T13:16:27.640Z,99907.53
2023-01-13T13:20:54.272Z,99921.19
2023-01-13T13:25:25.953Z,99909.06
2023-01-13T13:29:50.907Z,99892.00
2023-01-13T13:34:34.687Z,99901.06
2023-01-13T13:39:15.455Z,99901.31
2023-01-13T13:44:00.529Z,99915.09
2023-01-13T13:48:28.251Z,99912.06
2023-01-13T13:52:52.051Z,99929.53
2023-01-13T13:57:39.840Z,99919.31
2023-01-13T14:02:02.328Z,99921.31
2023-01-13T14:06:24.599Z,99918.38
2023-01-13T14:10:43.376Z,99918.63
2023-01-13T14:15:00.154Z,99924.59
2023-01-13T14:19:47.876Z,99924.50
2023-01-13T14:24:14.367Z,99927.34
2023-01-13T14:28:40.921Z,99932.22
2023-01-13T14:32:57.419Z,99931.91
2023-01-13T14:37:29.525Z,99929.56
2023-01-13T14:41:51.031Z,99939.78
2023-01-13T14:46:09.283Z,99940.25
2023-01-13T14:50:33.620Z,99931.41
2023-01-13T14:54:53.644Z,99948.75
2023-01-13T14:59:33.984Z,99938.97
2023-01-13T15:03:51.259Z,99930.84
2023-01-13T15:08:17.841Z,99935.75
2023-01-13T15:12:41.122Z,99934.88
2023-01-13T15:16:57.702Z,99944.28
2023-01-13T15:21:16.156Z,99951.44
2023-01-13T15:25:36.861Z,99949.47
2023-01-13T15:29:53.156Z,99948.94
2023-01-13T15:34:09.542Z,99951.34
2023-01-13T15:38:26.807Z,99953.25
2023-01-13T15:43:01.492Z,99965.38
2023-01-13T15:47:18.195Z,99966.59
2023-01-13T15:51:34.627Z,99968.00
2023-01-13T15:55:53.841Z,99968.56
2023-01-13T16:00:18.208Z,99965.00
2023-01-13T16:04:34.442Z,99971.97
2023-01-13T16:08:50.565Z,99968.09
2023-01-13T16:13:06.900Z,99971.50
2023-01-13T16:17:25.353Z,99978.22
2023-01-13T16:21:43.638Z,99981.03
2023-01-13T16:26:00.200Z,99979.88
2023-01-13T16:30:23.966Z,99973.50
2023-01-13T16:34:40.670Z,99980.22
2023-01-13T16:38:57.284Z,99980.34
2023-01-13T16:43:14.432Z,99975.75
2023-01-13T16:47:30.597Z,99982.00
2023-01-13T16:51:46.818Z,99988.69
2023-01-13T16:56:03.029Z,99984.81
2023-01-13T17:00:21.374Z,99987.66
2023-01-13T17:04:37.691Z,99988.81
2023-01-13T17:08:54.096Z,100000.81
2023-01-13T17:13:16.367Z,100009.72
2023-01-13T17:17:33.661Z,100009.16
2023-01-13T17:21:53.557Z,100009.63
2023-01-13T17:26:27.269Z,100012.56
2023-01-13T17:30:44.956Z,100013.31
2023-01-13T17:35:03.094Z,100000.81
2023-01-13T17:39:29.243Z,100002.53
2023-01-13T17:43:45.475Z,99999.88
2023-01-13T17:48:02.250Z,100006.00
2023-01-13T17:52:18.832Z,100005.72
2023-01-13T17:56:36.832Z,99997.28
2023-01-13T18:00:53.123Z,100007.63
2023-01-13T18:05:10.265Z,99999.69
2023-01-13T18:09:26.909Z,100003.75
2023-01-13T18:13:43.621Z,100009.09
2023-01-13T18:17:59.941Z,100006.56
2023-01-13T18:22:34.830Z,100006.09
2023-01-13T18:27:09.420Z,100003.41
2023-01-13T18:31:27.268Z,100007.50
2023-01-13T18:35:43.953Z,100009.09
2023-01-13T18:40:00.164Z,100004.56
2023-01-13T18:44:16.503Z,100003.41
2023-01-13T18:48:32.902Z,100007.47
2023-01-13T18:52:49.168Z,100001.94
2023-01-13T18:57:05.423Z,99997.38
2023-01-13T19:01:26.179Z,100001.41
2023-01-13T19:05:43.140Z,100005.88
2023-01-13T19:10:02.324Z,100001.12
2023-01-13T19:14:38.416Z,100002.94
2023-01-13T19:18:54.682Z,100024.09
2023-01-13T19:23:11.941Z,100056.81
2023-01-13T19:27:28.752Z,100063.69
2023-01-13T19:31:44.972Z,100048.69
2023-01-13T19:36:03.576Z,100040.34
2023-01-13T19:40:20.087Z,100048.91
2023-01-13T19:44:54.854Z,100054.22
2023-01-13T19:49:11.531Z,100063.78
2023-01-13T19:53:28.825Z,100065.41
2023-01-13T19:57:44.987Z,100100.41
2023-01-13T20:02:04.108Z,100151.47
2023-01-13T20:06:20.389Z,100131.09
2023-01-13T20:10:41.691Z,100135.00
2023-01-13T20:14:58.277Z,100122.37
2023-01-13T20:19:14.508Z,100137.94
2023-01-13T20:23:31.027Z,100143.00
2023-01-13T20:27:48.139Z,100126.00
2023-01-13T20:32:04.586Z,100128.28
2023-01-13T20:36:37.106Z,100123.19
2023-01-13T20:41:23.235Z,100115.81
2023-01-13T20:45:40.674Z,100103.25
2023-01-13T20:49:56.928Z,100102.19
2023-01-13T20:54:13.264Z,100099.03
2023-01-13T20:58:29.539Z,100092.13
2023-01-13T21:02:45.770Z,100099.50
2023-01-13T21:07:01.978Z,100092.69
2023-01-13T21:11:39.359Z,100092.47
2023-01-13T21:15:55.759Z,100095.88
2023-01-13T21:20:14.249Z,100055.44
2023-01-13T21:24:30.543Z,100023.28
2023-01-13T21:28:47.127Z,99996.78
2023-01-13T21:33:06.593Z,100020.59
2023-01-13T21:37:27.842Z,100042.00
2023-01-13T21:42:02.784Z,100047.53
2023-01-13T21:46:37.466Z,100049.75
2023-01-13T21:50:53.630Z,100130.69
2023-01-13T21:55:20.107Z,100197.75
2023-01-13T21:59:36.225Z,100210.81
2023-01-13T22:04:10.706Z,100191.50
2023-01-13T22:08:26.977Z,100200.94
2023-01-13T22:12:46.121Z,100181.75
2023-01-13T22:17:04.097Z,100160.91
2023-01-13T22:21:20.344Z,100140.62
2023-01-13T22:25:36.479Z,100124.63
2023-01-13T22:29:53.272Z,100119.88
2023-01-13T22:34:11.945Z,100124.41
2023-01-13T22:38:28.173Z,100128.69
2023-01-13T22:42:44.360Z,100140.62
2023-01-13T22:47:00.950Z,100140.91
2023-01-13T22:51:18.898Z,100134.78
2023-01-13T22:55:35.057Z,100130.25
2023-01-13T22:59:51.261Z,100118.09
2023-01-13T23:04:07.563Z,100118.37
2023-01-13T23:08:23.954Z,100125.53
2023-01-13T23:12:40.095Z,100116.03
2023-01-13T23:16:56.388Z,100112.03
2023-01-13T23:21:15.843Z,100111.63
2023-01-13T23:25:32.189Z,100126.62
2023-01-13T23:29:49.256Z,100138.25
2023-01-13T23:34:05.500Z,100135.56
2023-01-13T23:38:21.647Z,100128.09
2023-01-13T23:42:37.807Z,100124.69
2023-01-13T23:46:53.911Z,100117.44
2023-01-13T23:51:12.644Z,100104.97
2023-01-13T23:55:28.970Z,100103.16
2023-01-13T23:59:45.171Z,100090.72
